createdAt,value
2023-05-17T01:13:50.185Z,23.25
2023-05-17T01:16:19.775Z,19.52
2023-05-17T01:18:58.538Z,15.98
2023-05-17T01:21:35.437Z,22.55
2023-05-17T01:24:23.226Z,21.33
2023-05-17T01:26:53.405Z,14.50
2023-05-17T01:29:25.774Z,13.35
2023-05-17T01:31:53.840Z,11.65
2023-05-17T01:34:28.753Z,13.63
2023-05-17T01:36:57.654Z,12.85
2023-05-17T01:39:25.621Z,9.68
2023-05-17T01:42:05.827Z,14.60
2023-05-17T01:44:42.221Z,9.63
2023-05-17T01:47:13.142Z,9.90
2023-05-17T01:49:41.799Z,12.37
2023-05-17T01:52:19.242Z,8.75
2023-05-17T01:54:52.876Z,10.25
2023-05-17T01:57:26.773Z,12.65
2023-05-17T01:59:54.610Z,12.57
2023-05-17T02:02:22.972Z,12.93
2023-05-17T02:04:53.897Z,12.57
2023-05-17T02:07:22.358Z,17.27
2023-05-17T02:09:50.058Z,10.85
2023-05-17T02:12:17.689Z,16.88
2023-05-17T02:14:45.413Z,8.93
2023-05-17T02:17:13.615Z,11.82
2023-05-17T02:19:41.671Z,8.32
2023-05-17T02:22:09.478Z,11.45
2023-05-17T02:24:37.284Z,17.75
2023-05-17T02:27:04.994Z,7.35
2023-05-17T02:29:32.854Z,13.80
2023-05-17T02:32:00.787Z,18.40
2023-05-17T02:34:28.363Z,12.77
2023-05-17T02:36:58.586Z,15.10
2023-05-17T02:39:26.210Z,15.88
2023-05-17T02:41:54.224Z,12.65
2023-05-17T02:44:21.950Z,11.00
2023-05-17T02:46:49.636Z,10.23
2023-05-17T02:49:17.516Z,21.27
2023-05-17T02:51:45.088Z,12.50
2023-05-17T02:54:12.717Z,12.90
2023-05-17T02:56:40.305Z,11.60
2023-05-17T02:59:07.790Z,14.75
2023-05-17T03:01:36.174Z,5.95
2023-05-17T03:04:03.009Z,9.90
2023-05-17T03:06:31.461Z,8.68
2023-05-17T03:08:59.178Z,8.52
2023-05-17T03:11:26.845Z,14.82
2023-05-17T03:13:53.338Z,8.80
2023-05-17T03:16:19.941Z,7.90
2023-05-17T03:18:47.680Z,14.27
2023-05-17T03:21:14.234Z,11.10
2023-05-17T03:23:41.946Z,9.63
2023-05-17T03:26:08.397Z,14.43
2023-05-17T03:28:38.532Z,12.80
2023-05-17T03:31:06.532Z,21.65
2023-05-17T03:33:34.369Z,13.18
2023-05-17T03:36:02.185Z,10.90
2023-05-17T03:38:29.833Z,11.93
2023-05-17T03:40:57.575Z,13.70
2023-05-17T03:43:25.541Z,12.07
2023-05-17T03:45:53.457Z,13.25
2023-05-17T03:48:21.029Z,13.13
2023-05-17T03:50:48.932Z,12.90
2023-05-17T03:53:15.437Z,11.20
2023-05-17T03:55:43.460Z,17.48
2023-05-17T03:58:11.579Z,11.73
2023-05-17T04:00:38.366Z,15.88
2023-05-17T04:03:06.164Z,12.30
2023-05-17T04:05:32.995Z,12.00
2023-05-17T04:08:01.433Z,20.92
2023-05-17T04:10:27.955Z,15.02
2023-05-17T04:12:55.501Z,17.77
2023-05-17T04:15:23.436Z,30.73
2023-05-17T04:17:51.493Z,15.65
2023-05-17T04:20:19.186Z,17.13
2023-05-17T04:22:45.672Z,13.05
2023-05-17T04:25:12.218Z,14.23
2023-05-17T04:27:39.002Z,14.70
2023-05-17T04:30:05.989Z,14.05
2023-05-17T04:32:34.366Z,11.38
2023-05-17T04:35:01.111Z,11.13
2023-05-17T04:37:27.688Z,16.55
2023-05-17T04:39:54.187Z,9.73
2023-05-17T04:42:20.719Z,7.82
2023-05-17T04:44:47.198Z,12.00
2023-05-17T04:47:13.656Z,14.00
2023-05-17T04:49:40.200Z,15.23
2023-05-17T04:52:06.886Z,8.75
2023-05-17T04:54:33.381Z,13.02
2023-05-17T04:56:59.830Z,12.00
2023-05-17T04:59:26.396Z,17.55
2023-05-17T05:01:52.856Z,16.35
2023-05-17T18:19:04.429Z,23.48
2023-05-17T18:21:31.086Z,20.33
2023-05-17T18:41:05.881Z,23.30
2023-05-17T18:43:32.520Z,25.17
2023-05-17T19:08:20.860Z,20.73
2023-05-17T19:18:15.000Z,28.13
2023-05-17T19:25:35.984Z,23.10
2023-05-17T19:33:04.903Z,25.55
2023-05-17T19:35:34.324Z,25.70
2023-05-17T19:38:00.777Z,22.52
2023-05-17T19:40:27.328Z,20.38
2023-05-17T19:42:55.414Z,27.05
2023-05-17T19:45:21.934Z,23.90
2023-05-17T19:47:48.624Z,21.23
2023-05-17T19:50:17.302Z,16.67
2023-05-17T19:52:43.956Z,17.52
2023-05-17T19:55:18.174Z,20.23
2023-05-17T19:57:44.759Z,17.55
2023-05-17T20:00:11.566Z,19.70
2023-05-17T20:02:41.647Z,22.45
2023-05-17T20:05:08.444Z,20.45
2023-05-17T20:07:37.068Z,26.95
2023-05-17T20:10:04.623Z,19.45
2023-05-17T20:12:31.127Z,12.32
2023-05-17T20:15:04.118Z,12.73
2023-05-17T20:17:30.724Z,15.55
2023-05-17T20:19:57.275Z,12.48
2023-05-17T20:22:25.164Z,12.77
2023-05-17T20:24:51.723Z,7.72
2023-05-17T20:27:18.236Z,12.02
2023-05-17T20:29:46.460Z,11.00
2023-05-17T20:32:12.973Z,10.15
2023-05-17T20:34:47.128Z,10.45
2023-05-17T20:37:13.684Z,10.30
2023-05-17T20:39:40.210Z,7.70
2023-05-17T20:42:09.370Z,7.45
2023-05-17T20:44:35.948Z,4.72
2023-05-17T20:47:02.547Z,5.28
2023-05-17T20:49:35.164Z,5.75
2023-05-17T20:52:03.392Z,4.13
2023-05-17T20:54:32.310Z,8.65
2023-05-17T20:56:58.821Z,6.22
2023-05-17T20:59:26.519Z,11.63
2023-05-17T21:01:54.006Z,6.72
2023-05-17T21:04:20.944Z,10.38
2023-05-17T21:06:48.601Z,8.40
2023-05-17T21:09:21.557Z,5.97
2023-05-17T21:11:50.014Z,6.10
2023-05-17T21:14:16.484Z,9.23
2023-05-17T21:16:42.963Z,15.40
2023-05-17T21:19:16.683Z,15.85
2023-05-17T21:21:43.252Z,9.35
2023-05-17T21:24:10.765Z,7.65
2023-05-17T21:26:40.677Z,14.82
2023-05-17T21:29:07.790Z,9.15
2023-05-17T21:31:35.258Z,10.60
2023-05-17T21:34:01.795Z,13.60
2023-05-17T21:36:29.243Z,11.63
2023-05-17T21:38:56.023Z,7.60
2023-05-17T21:41:22.779Z,8.88
2023-05-17T21:43:50.462Z,11.05
2023-05-17T21:46:17.053Z,10.73
2023-05-17T21:48:44.358Z,13.52
2023-05-17T21:51:11.733Z,12.57
2023-05-17T21:53:38.194Z,11.43
2023-05-17T21:56:05.815Z,11.90
2023-05-17T21:58:32.428Z,8.45
2023-05-17T22:01:00.443Z,10.48
2023-05-17T22:03:27.093Z,16.55
2023-05-17T22:05:54.512Z,12.40
2023-05-17T22:08:21.999Z,11.45
2023-05-17T22:10:50.197Z,11.23
2023-05-17T22:13:18.928Z,13.32
2023-05-17T22:15:45.490Z,14.43
2023-05-17T22:18:17.754Z,14.27
2023-05-17T22:20:44.342Z,12.25
2023-05-17T22:23:11.091Z,9.63
2023-05-17T22:25:38.045Z,14.23
2023-05-17T22:28:22.658Z,14.68
2023-05-17T22:30:50.047Z,22.33
2023-05-17T22:33:16.910Z,13.55
2023-05-17T22:35:43.442Z,17.23
2023-05-17T22:38:09.930Z,16.50
2023-05-17T22:40:40.342Z,13.90
2023-05-17T22:43:08.337Z,16.48
2023-05-17T22:45:36.102Z,16.65
2023-05-17T22:48:03.842Z,15.77
2023-05-17T22:50:32.173Z,14.15
2023-05-17T22:53:01.368Z,10.40
2023-05-17T22:55:29.643Z,14.32
2023-05-17T22:57:57.521Z,14.23
2023-05-17T23:00:27.566Z,13.82
2023-05-17T23:02:55.632Z,17.42
2023-05-17T23:05:25.590Z,13.40
2023-05-17T23:07:53.447Z,13.93
2023-05-17T23:10:21.736Z,12.30
2023-05-17T23:12:51.508Z,14.57
2023-05-17T23:15:20.786Z,13.30
2023-05-17T23:17:48.613Z,15.55
2023-05-17T23:20:16.649Z,17.58
2023-05-17T23:22:44.092Z,17.08
2023-05-17T23:25:11.893Z,12.27
2023-05-17T23:27:39.605Z,13.75
2023-05-17T23:30:07.795Z,19.48
2023-05-17T23:32:35.805Z,12.75
2023-05-17T23:35:12.187Z,14.32
2023-05-17T23:37:38.952Z,12.05
2023-05-17T23:40:06.965Z,15.05
2023-05-17T23:42:35.192Z,16.48
2023-05-17T23:45:02.318Z,15.55
2023-05-17T23:47:28.983Z,15.75
2023-05-17T23:49:56.970Z,14.45
2023-05-17T23:52:24.783Z,10.27
2023-05-17T23:54:51.446Z,8.82
2023-05-17T23:57:23.988Z,9.90
2023-05-17T23:59:51.779Z,13.10
